Terminal Aerodrome Forecast
Issued by NWS

Home | Current Version | Previous Version | Text Only | Print | Product List | Glossary On
Versions: 1 2 3 4 5 6 7 8 9 10 11 12 13 14 15 16 17 18 19 20 21 22 23 24 25 26 27
791
FTUS43 KLOT 240900 AAA
TAFORD
TAF AMD
KORD 240900Z 2409/2512 28012G17KT 5SM -RA OVC012
     FM241400 30016G25KT 4SM RA SCT008 OVC010
     FM241900 31017G28KT 6SM -SHRA SCT012 OVC020
     FM250100 29014G24KT P6SM SCT025 BKN035
     FM250600 28010KT P6SM FEW035=

USA.gov is the U.S. government's official web portal to all federal, state and local government web resources and services.